sensor_id;sensor_type;location;lat;lon;timestamp;pressure;altitude;pressure_sealevel;temperature;humidity
71344;BME280;59146;43.850;25.948;2022-11-15T00:01:34;101982.03;;;7.87;78.57
71344;BME280;59146;43.850;25.948;2022-11-15T00:03:59;101879.59;;;7.27;78.92
71344;BME280;59146;43.850;25.948;2022-11-15T00:06:25;101970.09;;;7.78;79.25
71344;BME280;59146;43.850;25.948;2022-11-15T00:08:50;102045.78;;;8.37;78.59
71344;BME280;59146;43.850;25.948;2022-11-15T00:11:16;102052.78;;;8.35;78.63
71344;BME280;59146;43.850;25.948;2022-11-15T00:13:41;102052.19;;;8.25;79.14
71344;BME280;59146;43.850;25.948;2022-11-15T00:16:06;102050.41;;;8.24;79.45
71344;BME280;59146;43.850;25.948;2022-11-15T00:18:32;102046.69;;;8.34;79.40
71344;BME280;59146;43.850;25.948;2022-11-15T00:21:03;101970.47;;;7.97;78.70
71344;BME280;59146;43.850;25.948;2022-11-15T00:23:30;101968.31;;;7.80;79.36
71344;BME280;59146;43.850;25.948;2022-11-15T00:25:56;101966.16;;;7.64;80.03
71344;BME280;59146;43.850;25.948;2022-11-15T00:28:22;101934.19;;;7.60;79.82
71344;BME280;59146;43.850;25.948;2022-11-15T00:30:48;101995.44;;;8.04;79.34
71344;BME280;59146;43.850;25.948;2022-11-15T00:33:13;101979.97;;;7.98;79.22
71344;BME280;59146;43.850;25.948;2022-11-15T00:35:39;102009.34;;;8.03;79.52
71344;BME280;59146;43.850;25.948;2022-11-15T00:38:04;101949.63;;;7.66;80.22
71344;BME280;59146;43.850;25.948;2022-11-15T00:40:29;101947.72;;;7.73;79.50
71344;BME280;59146;43.850;25.948;2022-11-15T00:42:55;102030.63;;;8.17;79.87
71344;BME280;59146;43.850;25.948;2022-11-15T00:45:21;102010.72;;;8.16;79.75
71344;BME280;59146;43.850;25.948;2022-11-15T00:47:47;101985.03;;;8.04;79.60
71344;BME280;59146;43.850;25.948;2022-11-15T00:50:12;102014.03;;;8.21;78.82
71344;BME280;59146;43.850;25.948;2022-11-15T00:52:38;102004.88;;;8.08;79.79
71344;BME280;59146;43.850;25.948;2022-11-15T00:55:04;102000.13;;;7.91;80.30
71344;BME280;59146;43.850;25.948;2022-11-15T00:57:29;102006.75;;;8.03;80.38
71344;BME280;59146;43.850;25.948;2022-11-15T00:59:55;101920.81;;;7.40;80.80
71344;BME280;59146;43.850;25.948;2022-11-15T01:02:20;101951.59;;;7.57;80.92
71344;BME280;59146;43.850;25.948;2022-11-15T01:04:45;101979.03;;;7.68;80.79
71344;BME280;59146;43.850;25.948;2022-11-15T01:07:11;101967.03;;;7.63;80.87
71344;BME280;59146;43.850;25.948;2022-11-15T01:09:36;101946.47;;;7.54;80.64
71344;BME280;59146;43.850;25.948;2022-11-15T01:12:02;101976.34;;;7.71;80.40
71344;BME280;59146;43.850;25.948;2022-11-15T01:14:27;101955.81;;;7.61;80.23
71344;BME280;59146;43.850;25.948;2022-11-15T01:16:53;101928.28;;;7.52;80.54
71344;BME280;59146;43.850;25.948;2022-11-15T01:19:18;101977.53;;;7.92;79.64
71344;BME280;59146;43.850;25.948;2022-11-15T01:21:43;101991.06;;;8.06;79.16
71344;BME280;59146;43.850;25.948;2022-11-15T01:24:12;101949.19;;;7.83;79.51
71344;BME280;59146;43.850;25.948;2022-11-15T01:26:38;101945.47;;;7.91;78.45
71344;BME280;59146;43.850;25.948;2022-11-15T01:29:04;101997.22;;;8.34;78.06
71344;BME280;59146;43.850;25.948;2022-11-15T01:31:29;101960.00;;;7.98;78.19
71344;BME280;59146;43.850;25.948;2022-11-15T01:33:54;101972.84;;;8.04;78.61
71344;BME280;59146;43.850;25.948;2022-11-15T01:36:21;101982.91;;;8.18;78.00
71344;BME280;59146;43.850;25.948;2022-11-15T01:38:53;101917.69;;;7.92;77.60
71344;BME280;59146;43.850;25.948;2022-11-15T01:41:25;102003.00;;;8.45;77.23
71344;BME280;59146;43.850;25.948;2022-11-15T01:43:56;101977.72;;;8.18;77.44
71344;BME280;59146;43.850;25.948;2022-11-15T01:46:29;102007.88;;;8.27;78.10
71344;BME280;59146;43.850;25.948;2022-11-15T01:49:02;102003.34;;;8.33;78.09
71344;BME280;59146;43.850;25.948;2022-11-15T01:51:32;101949.13;;;8.17;77.15
71344;BME280;59146;43.850;25.948;2022-11-15T01:54:05;101909.88;;;7.93;76.76
71344;BME280;59146;43.850;25.948;2022-11-15T01:56:35;101971.59;;;8.19;77.54
71344;BME280;59146;43.850;25.948;2022-11-15T01:59:04;101895.78;;;7.70;77.75
71344;BME280;59146;43.850;25.948;2022-11-15T02:01:32;101978.97;;;8.36;77.47
71344;BME280;59146;43.850;25.948;2022-11-15T02:04:21;101956.38;;;8.36;76.60
71344;BME280;59146;43.850;25.948;2022-11-15T02:06:46;101897.91;;;7.86;77.01
71344;BME280;59146;43.850;25.948;2022-11-15T02:09:13;101915.25;;;7.87;77.58
71344;BME280;59146;43.850;25.948;2022-11-15T02:11:39;101871.56;;;7.68;77.45
71344;BME280;59146;43.850;25.948;2022-11-15T02:14:05;101939.66;;;8.14;77.16
71344;BME280;59146;43.850;25.948;2022-11-15T02:32:52;101916.06;;;7.88;76.86
71344;BME280;59146;43.850;25.948;2022-11-15T02:38:28;101969.34;;;8.39;75.51
71344;BME280;59146;43.850;25.948;2022-11-15T02:41:26;101954.09;;;8.26;75.57
71344;BME280;59146;43.850;25.948;2022-11-15T02:43:59;101890.22;;;7.82;75.71
71344;BME280;59146;43.850;25.948;2022-11-15T02:46:33;101970.78;;;8.17;76.34
71344;BME280;59146;43.850;25.948;2022-11-15T02:49:19;101959.31;;;8.24;76.11
71344;BME280;59146;43.850;25.948;2022-11-15T02:51:47;101968.41;;;8.40;75.25
71344;BME280;59146;43.850;25.948;2022-11-15T02:54:20;101970.59;;;8.23;75.56
71344;BME280;59146;43.850;25.948;2022-11-15T02:56:46;101906.06;;;7.74;75.73
71344;BME280;59146;43.850;25.948;2022-11-15T03:02:28;101968.78;;;8.28;75.44
71344;BME280;59146;43.850;25.948;2022-11-15T03:10:22;101867.56;;;7.55;76.13
71344;BME280;59146;43.850;25.948;2022-11-15T03:15:32;101895.81;;;7.99;75.25
71344;BME280;59146;43.850;25.948;2022-11-15T03:18:06;101889.38;;;7.81;75.26
71344;BME280;59146;43.850;25.948;2022-11-15T03:20:36;101940.28;;;7.91;76.25
71344;BME280;59146;43.850;25.948;2022-11-15T03:23:08;101912.66;;;7.86;76.25
71344;BME280;59146;43.850;25.948;2022-11-15T03:25:35;101867.09;;;7.73;75.82
71344;BME280;59146;43.850;25.948;2022-11-15T03:28:04;101928.31;;;8.15;75.15
71344;BME280;59146;43.850;25.948;2022-11-15T03:30:33;101924.53;;;7.96;75.75
71344;BME280;59146;43.850;25.948;2022-11-15T03:33:00;101957.28;;;8.03;75.99
71344;BME280;59146;43.850;25.948;2022-11-15T03:35:31;101954.16;;;7.90;76.34
71344;BME280;59146;43.850;25.948;2022-11-15T03:40:54;101868.47;;;7.54;76.36
71344;BME280;59146;43.850;25.948;2022-11-15T03:43:41;101941.09;;;7.92;76.50
71344;BME280;59146;43.850;25.948;2022-11-15T03:46:39;101943.81;;;7.89;76.67
71344;BME280;59146;43.850;25.948;2022-11-15T03:49:19;101816.56;;;7.17;76.59
71344;BME280;59146;43.850;25.948;2022-11-15T03:51:47;101866.84;;;7.50;76.87
71344;BME280;59146;43.850;25.948;2022-11-15T03:54:13;101917.56;;;7.96;76.83
71344;BME280;59146;43.850;25.948;2022-11-15T03:56:38;101858.72;;;7.62;76.13
71344;BME280;59146;43.850;25.948;2022-11-15T03:59:04;101877.56;;;7.70;76.55
71344;BME280;59146;43.850;25.948;2022-11-15T04:01:29;101832.94;;;7.53;76.63
71344;BME280;59146;43.850;25.948;2022-11-15T04:03:55;101852.25;;;7.76;75.81
71344;BME280;59146;43.850;25.948;2022-11-15T04:06:20;101820.47;;;7.65;74.89
71344;BME280;59146;43.850;25.948;2022-11-15T04:08:45;101853.75;;;7.83;75.39
71344;BME280;59146;43.850;25.948;2022-11-15T04:11:11;101795.97;;;7.42;75.75
71344;BME280;59146;43.850;25.948;2022-11-15T04:13:36;101879.16;;;8.06;75.60
71344;BME280;59146;43.850;25.948;2022-11-15T04:16:02;101837.34;;;7.81;75.34
71344;BME280;59146;43.850;25.948;2022-11-15T04:18:27;101869.03;;;8.26;74.35
71344;BME280;59146;43.850;25.948;2022-11-15T04:20:52;101874.19;;;7.97;75.40
71344;BME280;59146;43.850;25.948;2022-11-15T04:23:36;101881.28;;;7.92;75.81
71344;BME280;59146;43.850;25.948;2022-11-15T04:26:31;101840.94;;;7.77;75.34
71344;BME280;59146;43.850;25.948;2022-11-15T04:28:57;101881.59;;;8.11;74.77
71344;BME280;59146;43.850;25.948;2022-11-15T04:31:41;101875.59;;;8.09;74.83
71344;BME280;59146;43.850;25.948;2022-11-15T04:34:06;101845.44;;;7.71;75.81
71344;BME280;59146;43.850;25.948;2022-11-15T04:36:31;101889.88;;;7.94;75.46
71344;BME280;59146;43.850;25.948;2022-11-15T04:39:15;101880.09;;;7.73;76.22
71344;BME280;59146;43.850;25.948;2022-11-15T04:41:41;101898.84;;;7.84;76.47
71344;BME280;59146;43.850;25.948;2022-11-15T04:44:06;101748.72;;;6.95;76.38
71344;BME280;59146;43.850;25.948;2022-11-15T04:46:32;101875.84;;;7.69;76.25
71344;BME280;59146;43.850;25.948;2022-11-15T04:48:57;101713.78;;;6.75;76.09
71344;BME280;59146;43.850;25.948;2022-11-15T04:51:23;101884.50;;;7.69;76.62
71344;BME280;59146;43.850;25.948;2022-11-15T04:53:48;101854.16;;;7.70;76.43
71344;BME280;59146;43.850;25.948;2022-11-15T04:56:14;101907.22;;;7.95;76.02
71344;BME280;59146;43.850;25.948;2022-11-15T04:58:39;101789.72;;;7.16;76.46
71344;BME280;59146;43.850;25.948;2022-11-15T05:01:09;101893.75;;;7.81;76.79
71344;BME280;59146;43.850;25.948;2022-11-15T05:03:35;101827.69;;;7.54;76.67
71344;BME280;59146;43.850;25.948;2022-11-15T05:06:19;101828.31;;;7.64;75.80
71344;BME280;59146;43.850;25.948;2022-11-15T05:08:44;101858.66;;;7.94;75.62
71344;BME280;59146;43.850;25.948;2022-11-15T05:11:10;101840.72;;;7.85;75.47
71344;BME280;59146;43.850;25.948;2022-11-15T05:13:35;101843.56;;;8.07;75.10
71344;BME280;59146;43.850;25.948;2022-11-15T05:16:00;101847.81;;;8.09;74.38
71344;BME280;59146;43.850;25.948;2022-11-15T05:18:26;101880.50;;;8.19;74.64
71344;BME280;59146;43.850;25.948;2022-11-15T05:20:51;101906.75;;;8.12;75.60
71344;BME280;59146;43.850;25.948;2022-11-15T05:23:17;101830.75;;;7.70;75.86
71344;BME280;59146;43.850;25.948;2022-11-15T05:25:42;101746.22;;;7.25;75.51
71344;BME280;59146;43.850;25.948;2022-11-15T05:28:07;101878.63;;;8.24;74.48
71344;BME280;59146;43.850;25.948;2022-11-15T05:30:33;101853.25;;;8.01;74.59
71344;BME280;59146;43.850;25.948;2022-11-15T05:32:59;101696.81;;;6.94;75.30
71344;BME280;59146;43.850;25.948;2022-11-15T05:35:31;101867.84;;;8.07;75.11
71344;BME280;59146;43.850;25.948;2022-11-15T05:37:59;101851.97;;;8.16;74.54
71344;BME280;59146;43.850;25.948;2022-11-15T05:40:25;101895.50;;;8.40;74.07
71344;BME280;59146;43.850;25.948;2022-11-15T05:42:51;101900.56;;;8.16;74.65
71344;BME280;59146;43.850;25.948;2022-11-15T05:45:17;101902.16;;;8.20;75.25
71344;BME280;59146;43.850;25.948;2022-11-15T05:47:43;101902.03;;;8.24;75.24
71344;BME280;59146;43.850;25.948;2022-11-15T05:50:12;101890.50;;;8.34;73.88
71344;BME280;59146;43.850;25.948;2022-11-15T05:52:39;101848.59;;;7.82;74.96
71344;BME280;59146;43.850;25.948;2022-11-15T05:55:06;101867.25;;;7.97;74.92
71344;BME280;59146;43.850;25.948;2022-11-15T05:57:32;101890.16;;;8.16;75.23
71344;BME280;59146;43.850;25.948;2022-11-15T05:59:58;101840.81;;;7.82;75.15
71344;BME280;59146;43.850;25.948;2022-11-15T06:02:23;101749.13;;;7.14;75.20
71344;BME280;59146;43.850;25.948;2022-11-15T06:04:48;101888.09;;;7.96;75.36
71344;BME280;59146;43.850;25.948;2022-11-15T06:07:14;101840.63;;;7.88;74.99
71344;BME280;59146;43.850;25.948;2022-11-15T06:09:39;101897.59;;;8.29;74.06
71344;BME280;59146;43.850;25.948;2022-11-15T06:12:05;101883.06;;;8.21;74.01
71344;BME280;59146;43.850;25.948;2022-11-15T06:14:30;101888.03;;;8.30;73.95
71344;BME280;59146;43.850;25.948;2022-11-15T06:16:56;101844.22;;;8.13;73.35
71344;BME280;59146;43.850;25.948;2022-11-15T06:19:21;101873.16;;;8.04;73.93
71344;BME280;59146;43.850;25.948;2022-11-15T06:21:46;101916.75;;;8.27;74.52
71344;BME280;59146;43.850;25.948;2022-11-15T06:24:12;101892.69;;;8.17;74.86
71344;BME280;59146;43.850;25.948;2022-11-15T06:26:37;101900.84;;;8.36;73.92
71344;BME280;59146;43.850;25.948;2022-11-15T06:29:03;101878.38;;;8.33;73.22
71344;BME280;59146;43.850;25.948;2022-11-15T06:31:29;101825.94;;;7.85;73.71
71344;BME280;59146;43.850;25.948;2022-11-15T06:33:55;101841.44;;;7.90;74.48
71344;BME280;59146;43.850;25.948;2022-11-15T06:36:20;101842.81;;;8.03;74.10
71344;BME280;59146;43.850;25.948;2022-11-15T06:38:46;101903.06;;;8.49;73.32
71344;BME280;59146;43.850;25.948;2022-11-15T06:41:13;101833.19;;;8.05;73.19
71344;BME280;59146;43.850;25.948;2022-11-15T06:43:39;101896.16;;;8.18;73.90
71344;BME280;59146;43.850;25.948;2022-11-15T06:46:06;101893.50;;;8.19;74.25
71344;BME280;59146;43.850;25.948;2022-11-15T06:48:32;101910.16;;;8.44;74.03
71344;BME280;59146;43.850;25.948;2022-11-15T06:51:00;101857.34;;;8.10;74.43
71344;BME280;59146;43.850;25.948;2022-11-15T06:53:26;101884.41;;;8.35;73.55
71344;BME280;59146;43.850;25.948;2022-11-15T06:55:52;101884.22;;;8.41;73.47
71344;BME280;59146;43.850;25.948;2022-11-15T06:58:18;101866.47;;;8.25;73.35
71344;BME280;59146;43.850;25.948;2022-11-15T07:00:43;101828.47;;;8.18;72.88
71344;BME280;59146;43.850;25.948;2022-11-15T07:03:09;101900.47;;;8.49;73.47
71344;BME280;59146;43.850;25.948;2022-11-15T07:05:35;101889.09;;;8.52;73.15
71344;BME280;59146;43.850;25.948;2022-11-15T07:08:01;101912.41;;;8.84;71.34
71344;BME280;59146;43.850;25.948;2022-11-15T07:10:27;101781.78;;;8.13;70.73
71344;BME280;59146;43.850;25.948;2022-11-15T07:12:53;101837.66;;;8.31;71.60
71344;BME280;59146;43.850;25.948;2022-11-15T07:15:23;101851.56;;;8.30;72.53
71344;BME280;59146;43.850;25.948;2022-11-15T07:17:49;101777.03;;;7.98;71.90
71344;BME280;59146;43.850;25.948;2022-11-15T07:20:15;101819.13;;;8.41;71.19
71344;BME280;59146;43.850;25.948;2022-11-15T07:22:41;101897.16;;;8.72;71.80
71344;BME280;59146;43.850;25.948;2022-11-15T07:25:07;101880.78;;;8.68;72.10
71344;BME280;59146;43.850;25.948;2022-11-15T07:27:33;101838.69;;;8.54;71.30
71344;BME280;59146;43.850;25.948;2022-11-15T07:29:59;101831.16;;;8.45;71.79
71344;BME280;59146;43.850;25.948;2022-11-15T07:32:24;101816.59;;;8.38;71.38
71344;BME280;59146;43.850;25.948;2022-11-15T07:34:50;101882.19;;;8.78;71.29
71344;BME280;59146;43.850;25.948;2022-11-15T07:37:15;101811.41;;;8.38;71.85
71344;BME280;59146;43.850;25.948;2022-11-15T07:39:42;101848.06;;;8.86;70.75
71344;BME280;59146;43.850;25.948;2022-11-15T07:42:07;101844.44;;;8.92;70.15
71344;BME280;59146;43.850;25.948;2022-11-15T07:44:51;101832.66;;;8.52;71.08
71344;BME280;59146;43.850;25.948;2022-11-15T07:47:17;101877.19;;;8.99;71.18
71344;BME280;59146;43.850;25.948;2022-11-15T07:49:42;101891.03;;;9.27;70.10
71344;BME280;59146;43.850;25.948;2022-11-15T07:52:07;101858.47;;;8.86;70.76
71344;BME280;59146;43.850;25.948;2022-11-15T07:54:33;101875.44;;;8.73;71.77
71344;BME280;59146;43.850;25.948;2022-11-15T07:56:58;101871.22;;;8.69;72.08
71344;BME280;59146;43.850;25.948;2022-11-15T07:59:24;101825.22;;;8.68;71.07
71344;BME280;59146;43.850;25.948;2022-11-15T08:01:49;101797.91;;;8.53;70.66
71344;BME280;59146;43.850;25.948;2022-11-15T08:04:14;101764.72;;;8.32;71.17
71344;BME280;59146;43.850;25.948;2022-11-15T08:06:40;101811.66;;;8.58;71.68
71344;BME280;59146;43.850;25.948;2022-11-15T08:09:05;101830.88;;;8.80;70.71
71344;BME280;59146;43.850;25.948;2022-11-15T08:11:31;101778.66;;;8.57;69.97
71344;BME280;59146;43.850;25.948;2022-11-15T08:13:56;101865.91;;;8.72;71.79
71344;BME280;59146;43.850;25.948;2022-11-15T08:16:21;101817.69;;;8.59;71.93
71344;BME280;59146;43.850;25.948;2022-11-15T08:18:47;101841.03;;;8.88;71.15
71344;BME280;59146;43.850;25.948;2022-11-15T08:21:15;101841.41;;;8.77;71.72
71344;BME280;59146;43.850;25.948;2022-11-15T08:23:42;101716.97;;;8.06;71.28
71344;BME280;59146;43.850;25.948;2022-11-15T08:26:08;101803.94;;;8.82;70.57
71344;BME280;59146;43.850;25.948;2022-11-15T08:28:33;101776.28;;;8.77;70.29
71344;BME280;59146;43.850;25.948;2022-11-15T08:30:59;101859.88;;;9.48;69.98
71344;BME280;59146;43.850;25.948;2022-11-15T08:33:24;101848.81;;;9.42;68.85
71344;BME280;59146;43.850;25.948;2022-11-15T08:35:50;101847.81;;;9.20;69.14
71344;BME280;59146;43.850;25.948;2022-11-15T08:38:15;101815.44;;;9.01;69.48
71344;BME280;59146;43.850;25.948;2022-11-15T08:40:40;101823.09;;;9.05;69.68
71344;BME280;59146;43.850;25.948;2022-11-15T08:43:06;101790.16;;;8.78;69.89
71344;BME280;59146;43.850;25.948;2022-11-15T08:45:34;101783.09;;;8.82;70.78
71344;BME280;59146;43.850;25.948;2022-11-15T08:48:01;101700.16;;;8.16;71.36
71344;BME280;59146;43.850;25.948;2022-11-15T08:50:27;101799.31;;;8.90;71.55
71344;BME280;59146;43.850;25.948;2022-11-15T08:52:53;101798.50;;;9.14;70.98
71344;BME280;59146;43.850;25.948;2022-11-15T08:55:18;101753.44;;;9.10;69.86
71344;BME280;59146;43.850;25.948;2022-11-15T08:57:44;101767.69;;;9.00;70.42
71344;BME280;59146;43.850;25.948;2022-11-15T09:00:10;101755.13;;;8.87;71.05
71344;BME280;59146;43.850;25.948;2022-11-15T09:02:38;101810.91;;;9.32;69.67
71344;BME280;59146;43.850;25.948;2022-11-15T09:05:04;101775.03;;;9.14;69.53
71344;BME280;59146;43.850;25.948;2022-11-15T09:07:30;101756.41;;;9.00;69.92
71344;BME280;59146;43.850;25.948;2022-11-15T09:09:56;101727.47;;;8.82;69.93
71344;BME280;59146;43.850;25.948;2022-11-15T09:12:22;101740.34;;;9.12;69.18
71344;BME280;59146;43.850;25.948;2022-11-15T09:14:48;101748.81;;;8.94;70.07
71344;BME280;59146;43.850;25.948;2022-11-15T09:17:13;101750.03;;;8.84;70.47
71344;BME280;59146;43.850;25.948;2022-11-15T09:19:38;101805.09;;;9.24;70.87
71344;BME280;59146;43.850;25.948;2022-11-15T09:22:07;101760.66;;;9.27;69.07
71344;BME280;59146;43.850;25.948;2022-11-15T09:24:34;101793.50;;;9.80;68.37
71344;BME280;59146;43.850;25.948;2022-11-15T09:27:00;101761.50;;;9.52;68.33
71344;BME280;59146;43.850;25.948;2022-11-15T09:29:25;101777.25;;;9.49;69.61
71344;BME280;59146;43.850;25.948;2022-11-15T09:31:54;101787.94;;;9.66;68.78
71344;BME280;59146;43.850;25.948;2022-11-15T09:34:19;101734.06;;;9.42;68.73
71344;BME280;59146;43.850;25.948;2022-11-15T09:36:46;101704.16;;;9.27;68.25
71344;BME280;59146;43.850;25.948;2022-11-15T09:39:11;101784.66;;;9.61;68.97
71344;BME280;59146;43.850;25.948;2022-11-15T09:44:41;101727.06;;;9.66;67.90
71344;BME280;59146;43.850;25.948;2022-11-15T09:49:58;101742.44;;;9.73;68.08
71344;BME280;59146;43.850;25.948;2022-11-15T09:52:24;101688.06;;;9.39;68.73
71344;BME280;59146;43.850;25.948;2022-11-15T09:54:51;101743.38;;;9.94;67.40
71344;BME280;59146;43.850;25.948;2022-11-15T10:00:00;101741.91;;;9.87;67.34
71344;BME280;59146;43.850;25.948;2022-11-15T10:05:18;101755.47;;;9.96;67.87
71344;BME280;59146;43.850;25.948;2022-11-15T10:07:56;101707.63;;;9.51;68.79
71344;BME280;59146;43.850;25.948;2022-11-15T10:10:40;101646.31;;;8.93;69.34
71344;BME280;59146;43.850;25.948;2022-11-15T10:13:19;101744.25;;;9.48;70.49
71344;BME280;59146;43.850;25.948;2022-11-15T10:15:46;101705.38;;;9.42;69.99
71344;BME280;59146;43.850;25.948;2022-11-15T10:19:01;101740.69;;;9.74;70.28
71344;BME280;59146;43.850;25.948;2022-11-15T10:21:20;101646.81;;;9.27;68.82
71344;BME280;59146;43.850;25.948;2022-11-15T10:23:47;101726.06;;;9.70;69.04
71344;BME280;59146;43.850;25.948;2022-11-15T10:26:15;101678.38;;;9.43;70.01
71344;BME280;59146;43.850;25.948;2022-11-15T10:28:41;101716.81;;;9.84;70.29
71344;BME280;59146;43.850;25.948;2022-11-15T10:31:25;101661.84;;;9.66;68.83
71344;BME280;59146;43.850;25.948;2022-11-15T10:33:51;101637.63;;;9.40;69.59
71344;BME280;59146;43.850;25.948;2022-11-15T10:36:25;101674.41;;;9.56;70.14
71344;BME280;59146;43.850;25.948;2022-11-15T10:38:52;101715.81;;;9.87;68.95
71344;BME280;59146;43.850;25.948;2022-11-15T10:41:28;101683.09;;;9.78;68.78
71344;BME280;59146;43.850;25.948;2022-11-15T10:44:22;101712.06;;;9.94;67.86
71344;BME280;59146;43.850;25.948;2022-11-15T10:49:29;101687.53;;;9.76;69.24
71344;BME280;59146;43.850;25.948;2022-11-15T10:51:58;101682.78;;;9.64;69.73
71344;BME280;59146;43.850;25.948;2022-11-15T10:54:37;101634.16;;;9.40;68.58
71344;BME280;59146;43.850;25.948;2022-11-15T10:57:20;101553.03;;;8.79;68.79
71344;BME280;59146;43.850;25.948;2022-11-15T11:00:00;101642.63;;;9.46;68.91
71344;BME280;59146;43.850;25.948;2022-11-15T11:02:33;101610.06;;;9.33;68.98
71344;BME280;59146;43.850;25.948;2022-11-15T11:05:00;101629.38;;;9.51;68.11
71344;BME280;59146;43.850;25.948;2022-11-15T11:07:29;101575.06;;;8.94;68.81
71344;BME280;59146;43.850;25.948;2022-11-15T11:10:00;101622.16;;;9.13;69.69
71344;BME280;59146;43.850;25.948;2022-11-15T11:12:29;101634.28;;;9.37;69.89
71344;BME280;59146;43.850;25.948;2022-11-15T11:14:55;101583.28;;;9.30;68.90
71344;BME280;59146;43.850;25.948;2022-11-15T11:17:54;101599.91;;;9.26;69.68
71344;BME280;59146;43.850;25.948;2022-11-15T11:28:26;101638.53;;;9.84;67.57
71344;BME280;59146;43.850;25.948;2022-11-15T11:31:56;101630.97;;;9.55;68.63
71344;BME280;59146;43.850;25.948;2022-11-15T11:36:54;101542.31;;;9.10;69.28
71344;BME280;59146;43.850;25.948;2022-11-15T11:39:36;101630.75;;;9.61;68.07
71344;BME280;59146;43.850;25.948;2022-11-15T11:45:16;101625.88;;;9.52;69.32
71344;BME280;59146;43.850;25.948;2022-11-15T11:47:58;101571.81;;;9.34;68.90
71344;BME280;59146;43.850;25.948;2022-11-15T11:50:28;101593.06;;;9.46;68.76
71344;BME280;59146;43.850;25.948;2022-11-15T11:53:05;101604.00;;;9.33;70.07
71344;BME280;59146;43.850;25.948;2022-11-15T11:55:38;101548.16;;;8.94;70.58
71344;BME280;59146;43.850;25.948;2022-11-15T12:00:41;101560.03;;;9.24;68.13
71344;BME280;59146;43.850;25.948;2022-11-15T12:03:25;101604.78;;;9.35;69.68
71344;BME280;59146;43.850;25.948;2022-11-15T12:05:59;101438.41;;;8.09;69.95
71344;BME280;59146;43.850;25.948;2022-11-15T12:11:23;101604.94;;;9.09;70.15
71344;BME280;59146;43.850;25.948;2022-11-15T12:13:59;101572.66;;;8.88;70.10
71344;BME280;59146;43.850;25.948;2022-11-15T12:16:29;101598.94;;;9.07;70.71
71344;BME280;59146;43.850;25.948;2022-11-15T12:19:02;101544.53;;;8.74;70.70
71344;BME280;59146;43.850;25.948;2022-11-15T12:24:04;101409.22;;;7.76;71.04
71344;BME280;59146;43.850;25.948;2022-11-15T12:26:42;101548.75;;;8.54;71.30
71344;BME280;59146;43.850;25.948;2022-11-15T12:29:44;101529.00;;;8.71;70.64
71344;BME280;59146;43.850;25.948;2022-11-15T12:34:54;101515.16;;;8.94;70.00
71344;BME280;59146;43.850;25.948;2022-11-15T12:47:54;101485.94;;;9.08;69.43
71344;BME280;59146;43.850;25.948;2022-11-15T12:56:15;101552.16;;;9.47;69.78
71344;BME280;59146;43.850;25.948;2022-11-15T13:06:56;101434.03;;;8.80;68.87
71344;BME280;59146;43.850;25.948;2022-11-15T13:15:00;101543.53;;;9.45;69.66
71344;BME280;59146;43.850;25.948;2022-11-15T13:17:29;101483.63;;;9.22;69.31
71344;BME280;59146;43.850;25.948;2022-11-15T13:22:50;101519.13;;;9.47;69.49
71344;BME280;59146;43.850;25.948;2022-11-15T13:30:36;101480.59;;;9.32;69.99
71344;BME280;59146;43.850;25.948;2022-11-15T13:33:14;101503.28;;;9.52;69.46
71344;BME280;59146;43.850;25.948;2022-11-15T13:35:41;101463.47;;;9.27;69.39
71344;BME280;59146;43.850;25.948;2022-11-15T13:38:38;101388.28;;;8.95;69.73
71344;BME280;59146;43.850;25.948;2022-11-15T13:43:42;101410.72;;;8.99;69.63
71344;BME280;59146;43.850;25.948;2022-11-15T13:46:19;101507.72;;;9.28;70.25
71344;BME280;59146;43.850;25.948;2022-11-15T13:48:48;101451.81;;;9.14;69.64
71344;BME280;59146;43.850;25.948;2022-11-15T13:51:29;101428.09;;;9.20;68.83
71344;BME280;59146;43.850;25.948;2022-11-15T13:53:58;101426.59;;;9.14;69.54
71344;BME280;59146;43.850;25.948;2022-11-15T13:56:27;101424.13;;;8.90;69.51
71344;BME280;59146;43.850;25.948;2022-11-15T13:58:54;101422.53;;;9.07;69.73
71344;BME280;59146;43.850;25.948;2022-11-15T14:01:21;101423.47;;;9.06;69.52
71344;BME280;59146;43.850;25.948;2022-11-15T14:03:56;101390.41;;;8.63;70.50
71344;BME280;59146;43.850;25.948;2022-11-15T14:06:25;101480.38;;;9.17;70.27
71344;BME280;59146;43.850;25.948;2022-11-15T14:09:01;101411.13;;;8.66;70.58
71344;BME280;59146;43.850;25.948;2022-11-15T14:11:27;101445.50;;;8.98;70.19
71344;BME280;59146;43.850;25.948;2022-11-15T14:14:13;101476.81;;;9.19;69.59
71344;BME280;59146;43.850;25.948;2022-11-15T14:16:48;101462.63;;;9.05;70.28
71344;BME280;59146;43.850;25.948;2022-11-15T14:22:21;101470.91;;;9.14;70.03
71344;BME280;59146;43.850;25.948;2022-11-15T14:27:38;101469.81;;;8.98;71.67
71344;BME280;59146;43.850;25.948;2022-11-15T14:30:05;101429.44;;;8.87;71.34
71344;BME280;59146;43.850;25.948;2022-11-15T14:32:49;101431.69;;;8.96;71.24
71344;BME280;59146;43.850;25.948;2022-11-15T14:35:20;101403.88;;;8.74;71.41
71344;BME280;59146;43.850;25.948;2022-11-15T14:37:46;101420.34;;;8.75;71.76
71344;BME280;59146;43.850;25.948;2022-11-15T14:40:14;101415.97;;;8.75;71.68
71344;BME280;59146;43.850;25.948;2022-11-15T14:42:41;101425.81;;;8.91;71.78
71344;BME280;59146;43.850;25.948;2022-11-15T14:45:13;101442.22;;;8.93;71.64
71344;BME280;59146;43.850;25.948;2022-11-15T14:47:39;101406.94;;;8.62;72.34
71344;BME280;59146;43.850;25.948;2022-11-15T14:50:05;101447.09;;;9.02;72.05
71344;BME280;59146;43.850;25.948;2022-11-15T14:52:32;101398.72;;;8.95;71.42
71344;BME280;59146;43.850;25.948;2022-11-15T14:55:18;101409.03;;;8.98;70.86
71344;BME280;59146;43.850;25.948;2022-11-15T14:57:45;101415.19;;;8.73;71.85
71344;BME280;59146;43.850;25.948;2022-11-15T15:00:12;101396.94;;;8.73;71.96